createdAt,value
2017-05-17T00:01:05.984Z,1020.28
2017-05-17T00:02:17.264Z,1020.25
2017-05-17T00:03:28.490Z,1020.25
2017-05-17T00:04:39.517Z,1020.24
2017-05-17T00:05:50.543Z,1020.26
2017-05-17T00:07:01.611Z,1020.26
2017-05-17T00:08:12.674Z,1020.23
2017-05-17T00:09:23.694Z,1020.23
2017-05-17T00:10:34.960Z,1020.23
2017-05-17T00:11:45.975Z,1020.22
2017-05-17T00:12:57.040Z,1020.21
2017-05-17T00:14:08.276Z,1020.17
2017-05-17T00:15:19.293Z,1020.16
2017-05-17T00:16:30.310Z,1020.16
2017-05-17T00:17:41.334Z,1020.16
2017-05-17T00:18:52.398Z,1020.12
2017-05-17T00:20:03.418Z,1020.16
2017-05-17T00:21:14.422Z,1020.15
2017-05-17T00:22:25.445Z,1020.15
2017-05-17T00:23:36.670Z,1020.14
2017-05-17T00:24:47.941Z,1020.14
2017-05-17T00:25:58.966Z,1020.07
2017-05-17T00:27:10.186Z,1020.1
2017-05-17T00:28:21.211Z,1020.13
2017-05-17T00:29:32.233Z,1020.09
2017-05-17T00:30:43.456Z,1020.09
2017-05-17T00:31:54.480Z,1020.05
2017-05-17T00:33:05.501Z,1020.06
2017-05-17T00:34:16.506Z,1020.07
2017-05-17T00:35:27.777Z,1020.04
2017-05-17T00:36:38.809Z,1020.03
2017-05-17T00:37:49.827Z,1020.04
2017-05-17T00:39:00.845Z,1020.02
2017-05-17T00:40:11.878Z,1020.01
2017-05-17T00:41:22.935Z,1019.98
2017-05-17T00:42:33.960Z,1019.99
2017-05-17T00:43:45.004Z,1019.97
2017-05-17T00:44:56.028Z,1020.01
2017-05-17T00:46:07.061Z,1019.98
2017-05-17T00:47:18.573Z,1019.96
2017-05-17T00:48:29.594Z,1019.95
2017-05-17T00:49:40.625Z,1019.91
2017-05-17T00:50:51.638Z,1019.91
2017-05-17T00:52:02.863Z,1019.89
2017-05-17T00:53:13.941Z,1019.92
2017-05-17T00:54:25.166Z,1019.89
2017-05-17T00:55:36.588Z,1019.87
2017-05-17T00:56:47.608Z,1019.86
2017-05-17T00:57:58.826Z,1019.86
2017-05-17T00:59:10.106Z,1019.84
2017-05-17T01:00:21.120Z,1019.85
2017-05-17T01:01:32.132Z,1019.84
2017-05-17T01:02:43.160Z,1019.86
2017-05-17T01:03:54.187Z,1019.83
2017-05-17T01:05:05.261Z,1019.82
2017-05-17T01:06:16.275Z,1019.76
2017-05-17T01:07:27.300Z,1019.8
2017-05-17T01:08:38.319Z,1019.78
2017-05-17T01:09:49.533Z,1019.79
2017-05-17T01:11:00.608Z,1019.78
2017-05-17T01:12:11.615Z,1019.79
2017-05-17T01:13:22.831Z,1019.77
2017-05-17T01:14:34.042Z,1019.76
2017-05-17T01:15:45.059Z,1019.76
2017-05-17T01:16:56.119Z,1019.72
2017-05-17T01:18:07.143Z,1019.73
2017-05-17T01:19:18.153Z,1019.71
2017-05-17T01:20:29.159Z,1019.66
2017-05-17T01:21:40.175Z,1019.68
2017-05-17T01:22:51.263Z,1019.65
2017-05-17T01:24:02.332Z,1019.65
2017-05-17T01:25:13.350Z,1019.62
2017-05-17T01:26:24.365Z,1019.61
2017-05-17T01:27:35.575Z,1019.59
2017-05-17T01:28:46.706Z,1019.6
2017-05-17T01:29:57.724Z,1019.59
2017-05-17T01:31:08.736Z,1019.56
2017-05-17T01:32:19.953Z,1019.57
2017-05-17T01:33:31.170Z,1019.54
2017-05-17T01:34:42.230Z,1019.53
2017-05-17T01:35:53.445Z,1019.54
2017-05-17T01:37:04.457Z,1019.55
2017-05-17T01:38:15.470Z,1019.51
2017-05-17T01:39:26.491Z,1019.55
2017-05-17T01:40:37.557Z,1019.53
2017-05-17T01:41:48.567Z,1019.56
2017-05-17T01:42:59.581Z,1019.53
2017-05-17T01:44:10.590Z,1019.53
2017-05-17T01:45:21.658Z,1019.53
2017-05-17T01:46:32.665Z,1019.53
2017-05-17T01:47:43.735Z,1019.51
2017-05-17T01:48:54.749Z,1019.54
2017-05-17T01:50:05.970Z,1019.49
2017-05-17T01:51:17.243Z,1019.5
2017-05-17T01:52:28.261Z,1019.46
2017-05-17T01:53:39.284Z,1019.44
2017-05-17T01:54:50.304Z,1019.5
2017-05-17T01:56:01.322Z,1019.45
2017-05-17T01:57:12.380Z,1019.47
2017-05-17T01:58:23.399Z,1019.48
2017-05-17T01:59:34.465Z,1019.47
2017-05-17T02:00:45.543Z,1019.48
2017-05-17T02:01:56.763Z,1019.45
2017-05-17T02:03:07.824Z,1019.44
2017-05-17T02:04:18.823Z,1019.47
2017-05-17T02:05:29.837Z,1019.45
2017-05-17T02:06:40.849Z,1019.41
2017-05-17T02:07:51.875Z,1019.42
2017-05-17T02:09:03.349Z,1019.43
2017-05-17T02:10:14.365Z,1019.41
2017-05-17T02:11:25.385Z,1019.4
2017-05-17T02:12:36.805Z,1019.38
2017-05-17T02:13:47.834Z,1019.38
2017-05-17T02:14:58.902Z,1019.39
2017-05-17T02:16:10.127Z,1019.37
2017-05-17T02:17:21.345Z,1019.35
2017-05-17T02:18:32.363Z,1019.34
2017-05-17T02:19:43.431Z,1019.31
2017-05-17T02:20:54.449Z,1019.32
2017-05-17T02:22:05.469Z,1019.3
2017-05-17T02:23:16.486Z,1019.27
2017-05-17T02:24:27.564Z,1019.28
2017-05-17T02:25:38.627Z,1019.26
2017-05-17T02:26:49.636Z,1019.26
2017-05-17T02:28:00.857Z,1019.25
2017-05-17T02:29:11.866Z,1019.23
2017-05-17T02:30:22.887Z,1019.23
2017-05-17T02:31:33.952Z,1019.27
2017-05-17T02:32:44.965Z,1019.23
2017-05-17T02:33:55.979Z,1019.22
2017-05-17T02:35:07.010Z,1019.2
2017-05-17T02:36:18.034Z,1019.22
2017-05-17T02:37:29.107Z,1019.19
2017-05-17T02:38:40.127Z,1019.18
2017-05-17T02:39:51.149Z,1019.17
2017-05-17T02:41:02.174Z,1019.21
2017-05-17T02:42:13.182Z,1019.17
2017-05-17T02:43:24.466Z,1019.18
2017-05-17T02:44:35.691Z,1019.14
2017-05-17T02:45:46.709Z,1019.18
2017-05-17T02:46:57.730Z,1019.18
2017-05-17T02:48:08.749Z,1019.14
2017-05-17T02:49:19.865Z,1019.14
2017-05-17T02:50:30.879Z,1019.14
2017-05-17T02:51:41.895Z,1019.13
2017-05-17T02:52:53.123Z,1019.09
2017-05-17T02:54:04.143Z,1019.1
2017-05-17T02:55:15.419Z,1019.13
2017-05-17T02:56:26.441Z,1019.12
2017-05-17T02:57:37.452Z,1019.08
2017-05-17T02:58:48.514Z,1019.1
2017-05-17T02:59:59.533Z,1019.08
2017-05-17T03:01:10.602Z,1019.11
2017-05-17T03:02:21.621Z,1019.09
2017-05-17T03:03:32.650Z,1019.08
2017-05-17T03:04:43.673Z,1019.09
2017-05-17T03:05:54.713Z,1019.04
2017-05-17T03:07:05.765Z,1019.07
2017-05-17T03:08:16.989Z,1019.06
2017-05-17T03:09:28.207Z,1019.09
2017-05-17T03:10:39.225Z,1019.05
2017-05-17T03:11:50.231Z,1019.07
2017-05-17T03:13:01.283Z,1019.05
2017-05-17T03:14:12.562Z,1019.03
2017-05-17T03:15:23.581Z,1019.01
2017-05-17T03:16:34.601Z,1018.99
2017-05-17T03:17:45.817Z,1018.97
2017-05-17T03:18:56.880Z,1018.97
2017-05-17T03:20:07.895Z,1018.95
2017-05-17T03:21:18.901Z,1018.97
2017-05-17T03:22:29.929Z,1018.97
2017-05-17T03:23:41.006Z,1018.92
2017-05-17T03:24:52.276Z,1018.94
2017-05-17T03:26:03.309Z,1018.93
2017-05-17T03:27:14.333Z,1018.93
2017-05-17T03:28:25.429Z,1018.93
2017-05-17T03:29:36.502Z,1018.92
2017-05-17T03:30:47.712Z,1018.9
2017-05-17T03:31:58.933Z,1018.88
2017-05-17T03:33:10.159Z,1018.89
2017-05-17T03:34:21.186Z,1018.84
2017-05-17T03:35:32.253Z,1018.86
2017-05-17T03:36:43.262Z,1018.85
2017-05-17T03:37:54.269Z,1018.87
2017-05-17T03:39:05.305Z,1018.86
2017-05-17T03:40:16.529Z,1018.84
2017-05-17T03:41:27.576Z,1018.87
2017-05-17T03:42:38.581Z,1018.85
2017-05-17T03:43:49.603Z,1018.85
2017-05-17T03:45:00.630Z,1018.84
2017-05-17T03:46:11.677Z,1018.84
2017-05-17T03:47:22.744Z,1018.89
2017-05-17T03:48:33.968Z,1018.85
2017-05-17T03:49:45.182Z,1018.84
2017-05-17T03:50:56.194Z,1018.88
2017-05-17T03:52:07.266Z,1018.85
2017-05-17T03:53:18.328Z,1018.84
2017-05-17T03:54:29.340Z,1018.85
2017-05-17T03:55:40.352Z,1018.85
2017-05-17T03:56:51.376Z,1018.87
2017-05-17T03:58:02.404Z,1018.87
2017-05-17T03:59:13.486Z,1018.88
2017-05-17T04:00:24.515Z,1018.89
2017-05-17T04:01:35.732Z,1018.89
2017-05-17T04:02:46.763Z,1018.84
2017-05-17T04:03:57.794Z,1018.86
2017-05-17T04:05:08.863Z,1018.83
2017-05-17T04:06:19.870Z,1018.86
2017-05-17T04:07:30.873Z,1018.85
2017-05-17T04:08:41.885Z,1018.85
2017-05-17T04:09:52.909Z,1018.83
2017-05-17T04:11:03.977Z,1018.84
2017-05-17T04:12:15.190Z,1018.85
2017-05-17T04:13:26.204Z,1018.84
2017-05-17T04:14:37.220Z,1018.8
2017-05-17T04:15:48.236Z,1018.81
2017-05-17T04:16:59.304Z,1018.83
2017-05-17T04:18:10.329Z,1018.81
2017-05-17T04:19:21.346Z,1018.84
2017-05-17T04:20:32.359Z,1018.83
2017-05-17T04:21:43.574Z,1018.81
2017-05-17T04:22:54.632Z,1018.84
2017-05-17T04:24:05.654Z,1018.83
2017-05-17T04:25:16.873Z,1018.86
2017-05-17T04:26:28.275Z,1018.82
2017-05-17T04:27:39.487Z,1018.83
2017-05-17T04:28:50.752Z,1018.84
2017-05-17T04:30:01.784Z,1018.86
2017-05-17T04:31:12.804Z,1018.86
2017-05-17T04:32:23.825Z,1018.87
2017-05-17T04:33:34.848Z,1018.84
2017-05-17T04:34:45.925Z,1018.82
2017-05-17T04:35:56.947Z,1018.86
2017-05-17T04:37:08.354Z,1018.8
2017-05-17T04:38:19.375Z,1018.83
2017-05-17T04:39:30.595Z,1018.82
2017-05-17T04:40:41.610Z,1018.82
2017-05-17T04:41:52.612Z,1018.82
2017-05-17T04:43:03.629Z,1018.81
2017-05-17T04:44:14.853Z,1018.8
2017-05-17T04:45:26.121Z,1018.82
2017-05-17T04:46:37.334Z,1018.82
2017-05-17T04:47:48.358Z,1018.83
2017-05-17T04:48:59.381Z,1018.8
2017-05-17T04:50:10.400Z,1018.79
2017-05-17T04:51:21.469Z,1018.76
2017-05-17T04:52:32.486Z,1018.77
2017-05-17T04:53:43.498Z,1018.75
2017-05-17T04:54:54.705Z,1018.77
2017-05-17T04:56:05.718Z,1018.73
2017-05-17T04:57:16.781Z,1018.75
2017-05-17T04:58:28.013Z,1018.75
2017-05-17T04:59:39.440Z,1018.77
2017-05-17T05:00:50.449Z,1018.75
2017-05-17T05:02:01.459Z,1018.72
2017-05-17T05:03:12.520Z,1018.76
2017-05-17T05:04:23.546Z,1018.71
2017-05-17T05:05:34.563Z,1018.72
2017-05-17T05:06:45.778Z,1018.68
2017-05-17T05:07:56.792Z,1018.69
2017-05-17T05:09:07.858Z,1018.72
2017-05-17T05:10:18.947Z,1018.7
2017-05-17T05:11:29.961Z,1018.71
2017-05-17T05:12:40.970Z,1018.65
2017-05-17T05:13:51.993Z,1018.71
2017-05-17T05:15:03.060Z,1018.73
2017-05-17T05:16:14.488Z,1018.71
2017-05-17T05:17:25.713Z,1018.7
2017-05-17T05:18:36.736Z,1018.72
2017-05-17T05:19:47.749Z,1018.68
2017-05-17T05:20:58.822Z,1018.67
2017-05-17T05:22:10.044Z,1018.65
2017-05-17T05:23:21.260Z,1018.65
2017-05-17T05:24:32.473Z,1018.62
2017-05-17T05:25:43.486Z,1018.66
2017-05-17T05:26:54.958Z,1018.68
2017-05-17T05:28:05.976Z,1018.62
2017-05-17T05:29:17.041Z,1018.64
2017-05-17T05:30:28.122Z,1018.62
2017-05-17T05:31:39.326Z,1018.65
2017-05-17T05:32:50.398Z,1018.65
2017-05-17T05:34:01.418Z,1018.64
2017-05-17T05:35:12.437Z,1018.59
2017-05-17T05:36:23.453Z,1018.6
2017-05-17T05:37:34.527Z,1018.58
2017-05-17T05:38:45.601Z,1018.59
2017-05-17T05:39:57.015Z,1018.58
2017-05-17T05:41:08.034Z,1018.57
2017-05-17T05:42:19.255Z,1018.55
2017-05-17T05:43:30.270Z,1018.56
2017-05-17T05:44:41.531Z,1018.54
2017-05-17T05:45:52.555Z,1018.52
2017-05-17T05:47:03.574Z,1018.53
2017-05-17T05:48:14.598Z,1018.52
2017-05-17T05:49:25.680Z,1018.52
2017-05-17T05:50:36.904Z,1018.55
2017-05-17T05:51:47.931Z,1018.55
2017-05-17T05:52:58.945Z,1018.54
2017-05-17T05:54:10.146Z,1018.53
2017-05-17T05:55:21.254Z,1018.55
2017-05-17T05:56:32.463Z,1018.56
2017-05-17T05:57:43.684Z,1018.57
2017-05-17T05:58:54.720Z,1018.52
2017-05-17T06:00:05.746Z,1018.55
2017-05-17T06:01:16.811Z,1018.55
2017-05-17T06:02:27.817Z,1018.53
2017-05-17T06:03:38.840Z,1018.56
2017-05-17T06:04:49.864Z,1018.55
2017-05-17T06:06:00.883Z,1018.57
2017-05-17T06:07:11.936Z,1018.59
2017-05-17T06:08:22.951Z,1018.56
2017-05-17T06:09:34.168Z,1018.58
2017-05-17T06:10:45.200Z,1018.59
2017-05-17T06:11:56.212Z,1018.58
2017-05-17T06:13:07.273Z,1018.54
2017-05-17T06:14:18.502Z,1018.58
2017-05-17T06:15:29.536Z,1018.58
2017-05-17T06:16:40.553Z,1018.56
2017-05-17T06:17:51.769Z,1018.55
2017-05-17T06:19:02.847Z,1018.59
2017-05-17T06:20:13.874Z,1018.58
2017-05-17T06:21:24.883Z,1018.59
2017-05-17T06:22:35.903Z,1018.57
2017-05-17T06:23:46.926Z,1018.58
2017-05-17T06:24:57.996Z,1018.57
2017-05-17T06:26:09.215Z,1018.62
2017-05-17T06:27:20.224Z,1018.57
2017-05-17T06:28:31.242Z,1018.57
2017-05-17T06:29:42.261Z,1018.52
2017-05-17T06:30:53.479Z,1018.56
2017-05-17T06:32:04.487Z,1018.55
2017-05-17T06:33:15.503Z,1018.56
2017-05-17T06:34:26.747Z,1018.56
2017-05-17T06:35:37.811Z,1018.6
2017-05-17T06:36:48.827Z,1018.61
2017-05-17T06:38:00.053Z,1018.6
2017-05-17T06:39:11.071Z,1018.57
2017-05-17T06:40:22.088Z,1018.54
2017-05-17T06:41:33.159Z,1018.58
2017-05-17T06:42:44.192Z,1018.55
2017-05-17T06:43:55.212Z,1018.55
2017-05-17T06:45:06.230Z,1018.61
2017-05-17T06:46:17.249Z,1018.54
2017-05-17T06:47:28.311Z,1018.61
2017-05-17T06:48:39.531Z,1018.61
2017-05-17T06:49:50.552Z,1018.59
2017-05-17T06:51:01.595Z,1018.65
2017-05-17T06:52:12.620Z,1018.65
2017-05-17T06:53:23.885Z,1018.64
2017-05-17T06:54:34.899Z,1018.67
2017-05-17T06:55:45.919Z,1018.72
2017-05-17T06:56:57.150Z,1018.72
2017-05-17T06:58:08.365Z,1018.69
2017-05-17T06:59:19.649Z,1018.66
2017-05-17T07:00:30.670Z,1018.67
2017-05-17T07:01:41.684Z,1018.7
2017-05-17T07:02:52.914Z,1018.62
2017-05-17T07:04:03.935Z,1018.63
2017-05-17T07:05:15.206Z,1018.64
2017-05-17T07:06:26.234Z,1018.63
2017-05-17T07:07:37.251Z,1018.6
2017-05-17T07:08:48.481Z,1018.63
2017-05-17T07:09:59.509Z,1018.63
2017-05-17T07:11:10.591Z,1018.64
2017-05-17T07:12:21.809Z,1018.7
2017-05-17T07:13:32.838Z,1018.72
2017-05-17T07:14:43.865Z,1018.74
2017-05-17T07:15:54.906Z,1018.67
2017-05-17T07:17:05.980Z,1018.79
2017-05-17T07:18:17.014Z,1018.7
2017-05-17T07:19:28.041Z,1018.71
2017-05-17T07:20:39.332Z,1018.72
2017-05-17T07:21:50.363Z,1018.73
2017-05-17T07:23:01.430Z,1018.72
2017-05-17T07:24:12.459Z,1018.67
2017-05-17T07:25:23.485Z,1018.67
2017-05-17T07:26:34.510Z,1018.62
2017-05-17T07:27:45.531Z,1018.57
2017-05-17T07:28:56.605Z,1018.56
2017-05-17T07:30:07.639Z,1018.52
2017-05-17T07:31:18.662Z,1018.51
2017-05-17T07:32:29.747Z,1018.49
2017-05-17T07:33:40.970Z,1018.52
2017-05-17T07:34:52.047Z,1018.56
2017-05-17T07:36:03.081Z,1018.57
2017-05-17T07:37:14.113Z,1018.69
2017-05-17T07:38:25.333Z,1018.57
2017-05-17T07:39:36.374Z,1018.63
2017-05-17T07:40:47.428Z,1018.71
2017-05-17T07:41:58.709Z,1018.78
2017-05-17T07:43:09.928Z,1018.9
2017-05-17T07:44:20.950Z,1018.93
2017-05-17T07:45:32.030Z,1018.91
2017-05-17T07:46:43.051Z,1019.19
2017-05-17T07:47:54.082Z,1019.37
2017-05-17T07:49:05.127Z,1019.31
2017-05-17T07:50:16.160Z,1019.28
2017-05-17T07:51:27.239Z,1019.53
2017-05-17T07:52:38.266Z,1019.57
2017-05-17T07:53:49.492Z,1019.81
2017-05-17T07:55:00.532Z,1019.69
2017-05-17T07:56:11.565Z,1019.68
2017-05-17T07:57:22.642Z,1019.61
2017-05-17T07:58:33.672Z,1019.45
2017-05-17T07:59:44.902Z,1019.38
2017-05-17T08:00:55.930Z,1019.28
2017-05-17T08:02:06.973Z,1019.1
2017-05-17T08:03:18.223Z,1019.1
2017-05-17T08:04:29.259Z,1018.96
2017-05-17T08:05:40.497Z,1018.88
2017-05-17T08:06:51.536Z,1018.76
2017-05-17T08:08:02.817Z,1018.64
2017-05-17T08:09:13.859Z,1018.61
2017-05-17T08:10:24.917Z,1018.53
2017-05-17T08:11:35.949Z,1018.54
2017-05-17T08:12:47.187Z,1018.55
2017-05-17T08:13:58.468Z,1018.45
2017-05-17T08:15:09.559Z,1018.39
2017-05-17T08:16:20.583Z,1018.43
2017-05-17T08:17:31.619Z,1018.4
2017-05-17T08:18:42.656Z,1018.32
2017-05-17T08:19:53.731Z,1018.3
2017-05-17T08:21:04.764Z,1018.25
2017-05-17T08:22:15.788Z,1018.25
2017-05-17T08:23:26.826Z,1018.26
2017-05-17T08:24:37.860Z,1018.28
2017-05-17T08:25:48.939Z,1018.27
2017-05-17T08:27:00.172Z,1018.26
2017-05-17T08:28:11.202Z,1018.26
2017-05-17T08:29:22.233Z,1018.29
2017-05-17T08:30:33.272Z,1018.28
2017-05-17T08:31:44.547Z,1018.29
2017-05-17T08:32:55.783Z,1018.33
2017-05-17T08:34:07.022Z,1018.48
2017-05-17T08:35:18.059Z,1018.64
2017-05-17T08:36:29.092Z,1018.59
2017-05-17T08:37:40.129Z,1018.44
2017-05-17T08:38:51.168Z,1018.29
2017-05-17T08:40:02.206Z,1018.2
2017-05-17T08:41:13.247Z,1018.12
2017-05-17T08:42:24.276Z,1018.09
2017-05-17T08:43:35.328Z,1018.1
2017-05-17T08:44:46.374Z,1018.16
2017-05-17T08:45:57.408Z,1018.16
2017-05-17T08:47:08.755Z,1018.15
2017-05-17T08:48:19.802Z,1018.07
2017-05-17T08:49:30.834Z,1018.07
2017-05-17T08:50:41.867Z,1018.03
2017-05-17T08:51:52.901Z,1018.05
2017-05-17T08:53:03.993Z,1018.07
2017-05-17T08:54:15.031Z,1018.05
2017-05-17T08:55:26.271Z,1017.98
2017-05-17T08:56:37.513Z,1018.01
2017-05-17T08:57:48.540Z,1017.95
2017-05-17T08:58:59.675Z,1017.96
2017-05-17T09:00:10.727Z,1018.03
2017-05-17T09:01:21.753Z,1018.1
2017-05-17T09:02:32.793Z,1018.23
2017-05-17T09:03:43.829Z,1018.48
2017-05-17T09:04:54.926Z,1018.63
2017-05-17T09:06:05.970Z,1018.87
2017-05-17T09:07:17.014Z,1019.22
2017-05-17T09:08:28.052Z,1019.39
2017-05-17T09:09:39.094Z,1019.68
2017-05-17T09:10:50.127Z,1019.88
2017-05-17T09:12:01.365Z,1020.2
2017-05-17T09:13:12.424Z,1020.77
2017-05-17T09:14:23.462Z,1020.92
2017-05-17T09:15:34.549Z,1021.3
2017-05-17T09:16:45.786Z,1021.5
2017-05-17T09:17:56.821Z,1021.39
2017-05-17T09:19:08.067Z,1021.77
2017-05-17T09:20:19.112Z,1021.82
2017-05-17T09:21:30.201Z,1021.57
2017-05-17T09:22:41.266Z,1021.81
2017-05-17T09:23:52.508Z,1021.53
2017-05-17T09:25:03.532Z,1021.28
2017-05-17T09:26:14.580Z,1021.36
2017-05-17T09:27:25.876Z,1021.34
2017-05-17T09:28:36.911Z,1021.6
2017-05-17T09:29:47.946Z,1021.93
2017-05-17T09:30:58.982Z,1021.71
2017-05-17T09:32:10.210Z,1021.73
2017-05-17T09:33:21.491Z,1021.45
2017-05-17T09:34:32.534Z,1021.83
2017-05-17T09:35:43.589Z,1022
2017-05-17T09:36:54.829Z,1022.28
2017-05-17T09:38:05.878Z,1022.41
2017-05-17T09:39:17.163Z,1022.59
2017-05-17T09:40:28.217Z,1022.52
2017-05-17T09:41:39.262Z,1022.54
2017-05-17T09:42:50.295Z,1022.9
2017-05-17T09:44:01.334Z,1022.95
2017-05-17T09:45:12.412Z,1022.66
2017-05-17T09:46:23.460Z,1023.07
2017-05-17T09:47:34.496Z,1023.08
2017-05-17T09:48:45.534Z,1023.02
2017-05-17T09:49:56.574Z,1023.22
2017-05-17T09:51:07.666Z,1023.23
2017-05-17T09:52:18.692Z,1022.99
2017-05-17T09:53:29.726Z,1023.37
2017-05-17T09:54:40.754Z,1023.32
2017-05-17T09:55:51.786Z,1022.9
2017-05-17T09:57:02.868Z,1023.42
2017-05-17T09:58:13.903Z,1023.47
2017-05-17T09:59:24.952Z,1023.69
2017-05-17T10:00:35.991Z,1023.74
2017-05-17T10:01:47.020Z,1023.93
2017-05-17T10:02:58.110Z,1023.63
2017-05-17T10:04:09.144Z,1023.95
2017-05-17T10:05:20.195Z,1023.82
2017-05-17T10:06:31.235Z,1023.22
2017-05-17T10:07:42.262Z,1023.13
2017-05-17T10:08:53.334Z,1023.61
2017-05-17T10:10:04.361Z,1023.61
2017-05-17T10:11:15.587Z,1022.99
2017-05-17T10:12:26.615Z,1023.12
2017-05-17T10:13:37.857Z,1023.29
2017-05-17T10:14:49.156Z,1022.87
2017-05-17T10:16:00.193Z,1022.63
2017-05-17T10:17:11.234Z,1022.69
2017-05-17T10:18:22.338Z,1022.75
2017-05-17T10:19:33.387Z,1022.28
2017-05-17T10:20:44.412Z,1022.17
2017-05-17T10:21:55.453Z,1022.18
2017-05-17T10:23:06.499Z,1022.2
2017-05-17T10:24:17.545Z,1021.69
2017-05-17T10:25:28.838Z,1021.4
2017-05-17T10:26:40.272Z,1021.17
2017-05-17T10:27:51.306Z,1021.06
2017-05-17T10:29:02.336Z,1020.72
2017-05-17T10:30:13.374Z,1020.2
2017-05-17T10:31:24.455Z,1019.82
2017-05-17T10:32:35.702Z,1019.63
2017-05-17T10:33:46.937Z,1019.34
2017-05-17T10:34:57.967Z,1019.01
2017-05-17T10:36:08.991Z,1018.23
2017-05-17T10:37:20.074Z,1018.13
2017-05-17T10:38:31.318Z,1018.21
2017-05-17T10:39:42.355Z,1018.31
2017-05-17T10:40:53.588Z,1017.8
2017-05-17T10:42:04.627Z,1017.83
2017-05-17T10:43:15.711Z,1017.74
2017-05-17T10:44:26.753Z,1017.71
2017-05-17T10:45:37.781Z,1017.47
2017-05-17T10:46:48.813Z,1017.37
2017-05-17T10:47:59.874Z,1017.43
2017-05-17T10:49:10.962Z,1017.4
2017-05-17T10:50:22.197Z,1017.31
2017-05-17T10:51:33.234Z,1017.16
2017-05-17T10:52:44.262Z,1017.11
2017-05-17T10:53:55.505Z,1017.15
2017-05-17T10:55:06.795Z,1017.23
2017-05-17T10:56:17.832Z,1017.23
2017-05-17T10:57:28.858Z,1017.34
2017-05-17T10:58:40.097Z,1017.45
2017-05-17T10:59:51.129Z,1017.63
2017-05-17T11:01:02.219Z,1017.72
2017-05-17T11:02:13.440Z,1017.73
2017-05-17T11:03:24.482Z,1017.89
2017-05-17T11:04:35.521Z,1017.87
2017-05-17T11:05:46.608Z,1018.09
2017-05-17T11:06:57.649Z,1018.07
2017-05-17T11:08:08.683Z,1017.85
2017-05-17T11:09:19.727Z,1017.59
2017-05-17T11:10:30.967Z,1017.27
2017-05-17T11:11:42.054Z,1016.85
2017-05-17T11:12:53.090Z,1016.66
2017-05-17T11:14:04.149Z,1016.66
2017-05-17T11:15:15.189Z,1016.71
2017-05-17T11:16:26.437Z,1016.69
2017-05-17T11:17:37.729Z,1016.66
2017-05-17T11:18:48.768Z,1016.57
2017-05-17T11:20:01.521Z,1016.49
2017-05-17T11:21:14.970Z,1016.43
2017-05-17T11:22:26.002Z,1016.5
2017-05-17T11:23:37.079Z,1016.53
2017-05-17T11:24:48.132Z,1016.46
2017-05-17T11:25:59.373Z,1016.44
2017-05-17T11:27:10.407Z,1016.39
2017-05-17T11:28:21.638Z,1016.38
2017-05-17T11:29:32.724Z,1016.12
2017-05-17T11:30:43.763Z,1015.78
2017-05-17T11:31:54.812Z,1015.53
2017-05-17T11:33:05.855Z,1015.4
2017-05-17T11:34:17.091Z,1015.22
2017-05-17T11:35:28.171Z,1015.17
2017-05-17T11:36:39.215Z,1015.09
2017-05-17T11:37:50.474Z,1014.98
2017-05-17T11:39:01.509Z,1014.96
2017-05-17T11:40:12.746Z,1014.92
2017-05-17T11:41:23.827Z,1014.92
2017-05-17T11:42:34.855Z,1014.97
2017-05-17T11:43:46.096Z,1015
2017-05-17T11:44:57.145Z,1015.01
2017-05-17T11:46:08.375Z,1014.95
2017-05-17T11:47:19.461Z,1014.78
2017-05-17T11:48:30.496Z,1014.75
2017-05-17T11:49:41.533Z,1014.7
2017-05-17T11:50:52.773Z,1014.73
2017-05-17T11:52:03.800Z,1014.7
2017-05-17T11:53:14.884Z,1014.67
2017-05-17T11:54:25.922Z,1014.66
2017-05-17T11:55:37.160Z,1014.65
2017-05-17T11:56:48.175Z,1014.6
2017-05-17T11:57:59.195Z,1014.6
2017-05-17T11:59:10.282Z,1014.56
2017-05-17T12:00:21.321Z,1014.59
2017-05-17T12:01:32.563Z,1014.51
2017-05-17T12:02:43.600Z,1014.6
2017-05-17T12:03:54.637Z,1014.58
2017-05-17T12:05:05.917Z,1014.59
2017-05-17T12:06:16.949Z,1014.57
2017-05-17T12:07:28.392Z,1014.53
2017-05-17T12:08:39.637Z,1014.5
2017-05-17T12:09:50.660Z,1014.51
2017-05-17T12:11:01.813Z,1014.47
2017-05-17T12:12:12.840Z,1014.38
2017-05-17T12:13:23.874Z,1014.39
2017-05-17T12:14:34.905Z,1014.43
2017-05-17T12:15:45.937Z,1014.45
2017-05-17T12:16:57.089Z,1014.39
2017-05-17T12:18:08.122Z,1014.35
2017-05-17T12:19:19.353Z,1014.37
2017-05-17T12:20:30.459Z,1014.37
2017-05-17T12:21:41.687Z,1014.29
2017-05-17T12:22:52.776Z,1014.29
2017-05-17T12:24:03.818Z,1014.22
2017-05-17T12:25:14.852Z,1014.24
2017-05-17T12:26:25.879Z,1014.17
2017-05-17T12:27:37.186Z,1014.15
2017-05-17T12:28:48.285Z,1014.13
2017-05-17T12:29:59.302Z,1014.11
2017-05-17T12:31:10.338Z,1014.1
2017-05-17T12:32:21.378Z,1014.11
2017-05-17T12:33:32.418Z,1014.12
2017-05-17T12:34:43.777Z,1014.16
2017-05-17T12:35:54.834Z,1014.12
2017-05-17T12:37:05.864Z,1014.14
2017-05-17T12:38:16.884Z,1014.04
2017-05-17T12:39:28.173Z,1014.07
2017-05-17T12:40:39.207Z,1014.04
2017-05-17T12:41:50.438Z,1013.98
2017-05-17T12:43:01.683Z,1013.99
2017-05-17T12:44:12.707Z,1013.94
2017-05-17T12:45:23.798Z,1013.93
2017-05-17T12:46:35.013Z,1013.9
2017-05-17T12:47:46.258Z,1013.86
2017-05-17T12:48:57.489Z,1013.85
2017-05-17T12:50:08.514Z,1013.81
2017-05-17T12:51:19.798Z,1013.8
2017-05-17T12:52:30.824Z,1013.76
2017-05-17T12:53:41.858Z,1013.74
2017-05-17T12:54:52.883Z,1013.68
2017-05-17T12:56:04.115Z,1013.61
2017-05-17T12:57:15.410Z,1013.61
2017-05-17T12:58:26.646Z,1013.63
2017-05-17T12:59:37.694Z,1013.59
2017-05-17T13:00:48.719Z,1013.56
2017-05-17T13:01:59.754Z,1013.55
2017-05-17T13:03:10.832Z,1013.54
2017-05-17T13:04:21.852Z,1013.48
2017-05-17T13:05:32.903Z,1013.45
2017-05-17T13:06:43.939Z,1013.44
2017-05-17T13:07:54.959Z,1013.4
2017-05-17T13:09:06.044Z,1013.41
2017-05-17T13:10:17.087Z,1013.43
2017-05-17T13:11:28.314Z,1013.4
2017-05-17T13:12:39.338Z,1013.4
2017-05-17T13:13:50.424Z,1013.38
2017-05-17T13:15:01.478Z,1013.35
2017-05-17T13:16:12.508Z,1013.3
2017-05-17T13:17:23.739Z,1013.28
2017-05-17T13:18:34.771Z,1013.25
2017-05-17T13:19:46.043Z,1013.27
2017-05-17T13:20:57.072Z,1013.25
2017-05-17T13:22:08.096Z,1013.21
2017-05-17T13:23:19.116Z,1013.17
2017-05-17T13:24:30.142Z,1013.13
2017-05-17T13:25:41.418Z,1013.11
2017-05-17T13:26:52.462Z,1013.12
2017-05-17T13:28:03.494Z,1013.14
2017-05-17T13:29:14.530Z,1013.09
2017-05-17T13:30:25.565Z,1013.07
2017-05-17T13:31:36.643Z,1012.99
2017-05-17T13:32:47.890Z,1013
2017-05-17T13:33:58.932Z,1012.97
2017-05-17T13:35:09.971Z,1012.92
2017-05-17T13:36:21.007Z,1012.96
2017-05-17T13:37:32.298Z,1012.95
2017-05-17T13:38:43.324Z,1012.94
2017-05-17T13:39:54.370Z,1012.89
2017-05-17T13:41:05.397Z,1012.87
2017-05-17T13:42:16.424Z,1012.87
2017-05-17T13:43:27.509Z,1012.9
2017-05-17T13:44:38.748Z,1012.85
2017-05-17T13:45:49.825Z,1012.82
2017-05-17T13:47:01.169Z,1012.74
2017-05-17T13:48:12.218Z,1012.76
2017-05-17T13:49:23.290Z,1012.67
2017-05-17T13:50:34.315Z,1012.66
2017-05-17T13:51:45.355Z,1012.65
2017-05-17T13:52:56.394Z,1012.61
2017-05-17T13:54:07.422Z,1012.56
2017-05-17T13:55:18.490Z,1012.54
2017-05-17T13:56:29.713Z,1012.46
2017-05-17T13:57:40.736Z,1012.46
2017-05-17T13:58:51.760Z,1012.43
2017-05-17T14:00:02.794Z,1012.39
2017-05-17T14:01:13.873Z,1012.39
2017-05-17T14:02:24.913Z,1012.38
2017-05-17T14:03:35.942Z,1012.36
2017-05-17T14:04:46.960Z,1012.37
2017-05-17T14:05:57.997Z,1012.35
2017-05-17T14:07:09.268Z,1012.3
2017-05-17T14:08:20.299Z,1012.32
2017-05-17T14:09:31.318Z,1012.27
2017-05-17T14:10:42.347Z,1012.24
2017-05-17T14:11:53.366Z,1012.19
2017-05-17T14:13:04.446Z,1012.2
2017-05-17T14:14:15.458Z,1012.22
2017-05-17T14:15:26.499Z,1012.21
2017-05-17T14:16:37.529Z,1012.16
2017-05-17T14:17:48.543Z,1012.1
2017-05-17T14:18:59.615Z,1012.13
2017-05-17T14:20:10.846Z,1012.09
2017-05-17T14:21:21.866Z,1012.03
2017-05-17T14:22:32.892Z,1012.07